sensor_id;sensor_type;location;lat;lon;timestamp;pressure;altitude;pressure_sealevel;temperature;humidity
73016;BME280;61893;50.074;14.440;2023-05-19T09:59:59;99053.41;;;19.51;37.97
73016;BME280;61893;50.074;14.440;2023-05-19T10:02:31;99059.81;;;20.61;36.34
73016;BME280;61893;50.074;14.440;2023-05-19T10:04:58;99063.66;;;20.39;37.27
73016;BME280;61893;50.074;14.440;2023-05-19T10:07:30;99061.81;;;19.63;38.32
73016;BME280;61893;50.074;14.440;2023-05-19T10:09:57;99061.06;;;19.48;38.78
73016;BME280;61893;50.074;14.440;2023-05-19T10:12:25;99056.91;;;19.73;38.40
73016;BME280;61893;50.074;14.440;2023-05-19T10:14:53;99057.28;;;20.53;36.76
73016;BME280;61893;50.074;14.440;2023-05-19T10:17:35;99056.97;;;20.96;36.69
73016;BME280;61893;50.074;14.440;2023-05-19T10:20:38;99060.22;;;20.72;36.34
73016;BME280;61893;50.074;14.440;2023-05-19T10:24:07;99047.84;;;20.29;38.40
73016;BME280;61893;50.074;14.440;2023-05-19T10:35:11;99045.78;;;18.62;41.50
73016;BME280;61893;50.074;14.440;2023-05-19T10:38:11;99035.28;;;19.39;40.18
73016;BME280;61893;50.074;14.440;2023-05-19T10:48:14;99030.44;;;19.97;39.83
73016;BME280;61893;50.074;14.440;2023-05-19T10:55:50;99025.94;;;19.13;41.29
73016;BME280;61893;50.074;14.440;2023-05-19T10:59:32;99038.84;;;19.18;42.16
73016;BME280;61893;50.074;14.440;2023-05-19T11:03:22;99029.72;;;19.19;41.74
73016;BME280;61893;50.074;14.440;2023-05-19T11:10:04;99029.56;;;18.99;41.60
73016;BME280;61893;50.074;14.440;2023-05-19T11:13:26;99030.28;;;18.86;42.58
73016;BME280;61893;50.074;14.440;2023-05-19T11:16:34;99032.69;;;19.24;41.84
73016;BME280;61893;50.074;14.440;2023-05-19T11:19:33;99020.84;;;18.75;43.27
73016;BME280;61893;50.074;14.440;2023-05-19T11:23:32;99021.81;;;18.89;42.91
73016;BME280;61893;50.074;14.440;2023-05-19T11:26:58;99014.69;;;18.81;43.40
73016;BME280;61893;50.074;14.440;2023-05-19T11:29:52;99025.56;;;18.73;43.75
73016;BME280;61893;50.074;14.440;2023-05-19T11:32:54;99026.78;;;19.13;43.16
73016;BME280;61893;50.074;14.440;2023-05-19T11:38:58;99015.78;;;18.29;45.58
73016;BME280;61893;50.074;14.440;2023-05-19T11:47:26;99014.47;;;18.04;46.08
73016;BME280;61893;50.074;14.440;2023-05-19T11:50:02;99013.31;;;18.13;46.17
73016;BME280;61893;50.074;14.440;2023-05-19T11:52:32;99018.00;;;17.89;46.61
73016;BME280;61893;50.074;14.440;2023-05-19T11:55:02;99014.88;;;18.22;46.10
73016;BME280;61893;50.074;14.440;2023-05-19T11:57:29;99010.59;;;17.91;46.92
73016;BME280;61893;50.074;14.440;2023-05-19T12:00:12;99007.63;;;18.22;46.63
73016;BME280;61893;50.074;14.440;2023-05-19T12:03:28;99004.97;;;18.44;46.02
73016;BME280;61893;50.074;14.440;2023-05-19T12:06:32;99002.13;;;18.31;46.40
73016;BME280;61893;50.074;14.440;2023-05-19T12:09:26;98999.81;;;18.71;45.69
73016;BME280;61893;50.074;14.440;2023-05-19T12:12:03;98995.16;;;18.79;45.66
73016;BME280;61893;50.074;14.440;2023-05-19T12:14:51;99002.97;;;18.53;45.96
73016;BME280;61893;50.074;14.440;2023-05-19T12:17:19;99005.94;;;18.58;45.37
73016;BME280;61893;50.074;14.440;2023-05-19T12:19:49;99005.13;;;19.00;44.44
73016;BME280;61893;50.074;14.440;2023-05-19T12:22:16;99000.56;;;18.21;46.57
73016;BME280;61893;50.074;14.440;2023-05-19T12:24:43;98996.94;;;18.72;45.52
73016;BME280;61893;50.074;14.440;2023-05-19T12:27:17;99011.13;;;18.38;46.04
73016;BME280;61893;50.074;14.440;2023-05-19T12:29:51;99008.59;;;18.36;46.26
73016;BME280;61893;50.074;14.440;2023-05-19T12:32:22;99010.16;;;18.45;46.05
73016;BME280;61893;50.074;14.440;2023-05-19T12:34:55;99005.56;;;18.03;47.02
73016;BME280;61893;50.074;14.440;2023-05-19T12:37:32;99004.03;;;18.37;46.58
73016;BME280;61893;50.074;14.440;2023-05-19T12:40:02;99001.19;;;18.38;46.76
73016;BME280;61893;50.074;14.440;2023-05-19T12:42:47;98995.41;;;18.20;47.18
73016;BME280;61893;50.074;14.440;2023-05-19T12:45:20;98998.22;;;18.33;46.29
73016;BME280;61893;50.074;14.440;2023-05-19T12:47:53;98995.28;;;18.50;46.36
73016;BME280;61893;50.074;14.440;2023-05-19T12:50:29;98991.78;;;18.13;47.54
73016;BME280;61893;50.074;14.440;2023-05-19T12:52:58;98997.13;;;18.28;46.75
73016;BME280;61893;50.074;14.440;2023-05-19T12:55:25;98996.63;;;18.60;46.09
73016;BME280;61893;50.074;14.440;2023-05-19T12:57:57;98990.91;;;18.27;46.71
73016;BME280;61893;50.074;14.440;2023-05-19T13:00:50;99000.56;;;18.21;47.74
73016;BME280;61893;50.074;14.440;2023-05-19T13:03:45;98987.41;;;18.12;48.22
73016;BME280;61893;50.074;14.440;2023-05-19T13:06:33;99009.09;;;18.25;47.69
73016;BME280;61893;50.074;14.440;2023-05-19T13:09:05;98998.66;;;17.71;49.12
73016;BME280;61893;50.074;14.440;2023-05-19T13:11:49;98996.41;;;18.19;47.92
73016;BME280;61893;50.074;14.440;2023-05-19T13:14:19;98980.63;;;18.16;47.89
73016;BME280;61893;50.074;14.440;2023-05-19T13:16:45;98998.47;;;18.02;48.02
73016;BME280;61893;50.074;14.440;2023-05-19T13:19:18;98988.69;;;18.16;47.91
73016;BME280;61893;50.074;14.440;2023-05-19T13:21:47;98972.72;;;17.63;48.95
73016;BME280;61893;50.074;14.440;2023-05-19T13:24:15;98989.31;;;17.82;48.71
73016;BME280;61893;50.074;14.440;2023-05-19T13:26:43;98987.81;;;17.94;47.85
73016;BME280;61893;50.074;14.440;2023-05-19T13:29:11;98995.16;;;17.70;48.75
73016;BME280;61893;50.074;14.440;2023-05-19T13:31:40;98984.69;;;17.61;49.79
73016;BME280;61893;50.074;14.440;2023-05-19T13:34:24;98986.50;;;18.41;47.86
73016;BME280;61893;50.074;14.440;2023-05-19T13:36:50;98985.00;;;18.38;47.93
73016;BME280;61893;50.074;14.440;2023-05-19T13:39:16;98986.25;;;18.57;47.24
73016;BME280;61893;50.074;14.440;2023-05-19T13:41:45;98979.44;;;18.04;48.02
73016;BME280;61893;50.074;14.440;2023-05-19T13:44:11;98984.47;;;18.28;48.07
73016;BME280;61893;50.074;14.440;2023-05-19T13:46:51;98978.88;;;18.08;48.51
73016;BME280;61893;50.074;14.440;2023-05-19T13:49:23;98971.47;;;17.95;49.14
73016;BME280;61893;50.074;14.440;2023-05-19T13:51:55;98975.94;;;17.73;49.49
73016;BME280;61893;50.074;14.440;2023-05-19T13:54:24;98980.22;;;17.97;49.08
73016;BME280;61893;50.074;14.440;2023-05-19T13:57:06;98975.47;;;17.70;49.63
73016;BME280;61893;50.074;14.440;2023-05-19T13:59:31;98964.44;;;17.79;49.70
73016;BME280;61893;50.074;14.440;2023-05-19T14:01:57;98974.47;;;17.86;49.48
73016;BME280;61893;50.074;14.440;2023-05-19T14:04:29;98969.94;;;17.71;49.90
73016;BME280;61893;50.074;14.440;2023-05-19T14:06:58;98976.41;;;17.47;50.74
73016;BME280;61893;50.074;14.440;2023-05-19T14:09:56;98972.53;;;17.50;50.59
73016;BME280;61893;50.074;14.440;2023-05-19T14:12:46;98982.72;;;17.25;51.74
73016;BME280;61893;50.074;14.440;2023-05-19T14:15:12;98982.47;;;16.82;53.16
73016;BME280;61893;50.074;14.440;2023-05-19T14:17:38;98978.75;;;17.36;52.02
73016;BME280;61893;50.074;14.440;2023-05-19T14:20:12;98975.50;;;17.55;51.62
73016;BME280;61893;50.074;14.440;2023-05-19T14:22:51;98987.56;;;17.29;51.83
73016;BME280;61893;50.074;14.440;2023-05-19T14:25:17;98974.63;;;17.10;52.44
73016;BME280;61893;50.074;14.440;2023-05-19T14:28:04;98977.56;;;16.85;53.60
73016;BME280;61893;50.074;14.440;2023-05-19T14:30:30;98976.78;;;17.15;52.99
73016;BME280;61893;50.074;14.440;2023-05-19T14:32:56;98977.09;;;16.97;53.45
73016;BME280;61893;50.074;14.440;2023-05-19T14:35:22;98982.22;;;16.92;53.48
73016;BME280;61893;50.074;14.440;2023-05-19T14:38:06;98979.47;;;17.00;53.04
73016;BME280;61893;50.074;14.440;2023-05-19T14:40:32;98986.59;;;17.07;53.05
73016;BME280;61893;50.074;14.440;2023-05-19T14:43:11;98975.69;;;17.24;53.49
73016;BME280;61893;50.074;14.440;2023-05-19T14:45:40;98974.19;;;17.21;52.96
73016;BME280;61893;50.074;14.440;2023-05-19T14:48:08;98972.75;;;16.96;53.97
73016;BME280;61893;50.074;14.440;2023-05-19T14:50:51;98975.88;;;16.84;54.19
73016;BME280;61893;50.074;14.440;2023-05-19T14:53:31;98985.91;;;16.91;54.56
73016;BME280;61893;50.074;14.440;2023-05-19T14:55:57;98972.72;;;16.81;54.51
73016;BME280;61893;50.074;14.440;2023-05-19T14:58:23;98986.69;;;16.76;55.12
73016;BME280;61893;50.074;14.440;2023-05-19T15:00:52;98977.38;;;16.64;55.46
73016;BME280;61893;50.074;14.440;2023-05-19T15:03:24;98988.53;;;16.76;54.84
73016;BME280;61893;50.074;14.440;2023-05-19T15:05:50;98972.91;;;16.79;55.25
73016;BME280;61893;50.074;14.440;2023-05-19T15:08:16;98986.88;;;16.75;55.20
73016;BME280;61893;50.074;14.440;2023-05-19T15:10:41;98981.09;;;16.86;55.14
73016;BME280;61893;50.074;14.440;2023-05-19T15:13:11;98990.09;;;16.93;54.76
73016;BME280;61893;50.074;14.440;2023-05-19T15:15:38;98981.81;;;16.80;54.92
73016;BME280;61893;50.074;14.440;2023-05-19T15:18:24;98985.13;;;16.82;55.13
73016;BME280;61893;50.074;14.440;2023-05-19T15:20:50;98987.69;;;16.75;55.16
73016;BME280;61893;50.074;14.440;2023-05-19T15:23:22;98984.03;;;16.68;56.01
73016;BME280;61893;50.074;14.440;2023-05-19T15:25:50;98982.84;;;16.71;56.31
73016;BME280;61893;50.074;14.440;2023-05-19T15:28:22;98978.56;;;16.84;55.64
73016;BME280;61893;50.074;14.440;2023-05-19T15:30:50;98980.25;;;16.85;55.81
73016;BME280;61893;50.074;14.440;2023-05-19T15:33:19;98979.63;;;16.98;55.41
73016;BME280;61893;50.074;14.440;2023-05-19T15:35:45;98973.09;;;16.78;55.85
73016;BME280;61893;50.074;14.440;2023-05-19T15:38:27;98978.03;;;16.89;55.69
73016;BME280;61893;50.074;14.440;2023-05-19T15:40:56;98978.88;;;16.89;55.76
73016;BME280;61893;50.074;14.440;2023-05-19T15:43:49;98973.50;;;17.04;55.36
73016;BME280;61893;50.074;14.440;2023-05-19T15:46:43;98972.28;;;16.77;55.90
73016;BME280;61893;50.074;14.440;2023-05-19T15:49:09;98977.38;;;16.87;55.77
73016;BME280;61893;50.074;14.440;2023-05-19T15:51:38;98971.34;;;16.85;56.00
73016;BME280;61893;50.074;14.440;2023-05-19T15:54:04;98970.41;;;16.78;56.08
73016;BME280;61893;50.074;14.440;2023-05-19T15:56:30;98973.13;;;16.93;55.94
73016;BME280;61893;50.074;14.440;2023-05-19T15:59:02;98968.56;;;16.93;55.63
73016;BME280;61893;50.074;14.440;2023-05-19T16:01:32;98965.56;;;16.50;56.84
73016;BME280;61893;50.074;14.440;2023-05-19T16:04:00;98974.88;;;16.85;56.15
73016;BME280;61893;50.074;14.440;2023-05-19T16:06:51;98970.72;;;16.83;56.03
73016;BME280;61893;50.074;14.440;2023-05-19T16:09:34;98973.78;;;16.72;56.96
73016;BME280;61893;50.074;14.440;2023-05-19T16:12:06;98979.13;;;16.80;56.86
73016;BME280;61893;50.074;14.440;2023-05-19T16:14:43;98978.63;;;16.76;56.90
73016;BME280;61893;50.074;14.440;2023-05-19T16:17:09;98975.66;;;16.71;57.21
73016;BME280;61893;50.074;14.440;2023-05-19T16:19:40;98974.38;;;16.82;56.38
73016;BME280;61893;50.074;14.440;2023-05-19T16:22:06;98972.72;;;16.81;56.58
73016;BME280;61893;50.074;14.440;2023-05-19T16:24:47;98977.06;;;16.82;56.26
73016;BME280;61893;50.074;14.440;2023-05-19T16:27:13;98978.97;;;16.73;56.54
73016;BME280;61893;50.074;14.440;2023-05-19T16:29:44;98973.13;;;16.70;57.40
73016;BME280;61893;50.074;14.440;2023-05-19T16:32:27;98985.28;;;16.65;58.03
73016;BME280;61893;50.074;14.440;2023-05-19T16:35:05;98973.66;;;16.42;59.23
73016;BME280;61893;50.074;14.440;2023-05-19T16:38:37;98979.81;;;16.28;59.99
73016;BME280;61893;50.074;14.440;2023-05-19T16:41:18;98975.78;;;16.32;60.05
73016;BME280;61893;50.074;14.440;2023-05-19T16:43:44;98977.47;;;16.25;60.42
73016;BME280;61893;50.074;14.440;2023-05-19T16:46:19;98973.53;;;16.12;60.76
73016;BME280;61893;50.074;14.440;2023-05-19T16:49:02;98966.38;;;16.05;61.07
73016;BME280;61893;50.074;14.440;2023-05-19T16:51:47;98983.31;;;16.05;61.12
73016;BME280;61893;50.074;14.440;2023-05-19T16:54:19;98968.53;;;16.09;61.11
73016;BME280;61893;50.074;14.440;2023-05-19T16:56:50;98975.91;;;16.07;61.16
73016;BME280;61893;50.074;14.440;2023-05-19T16:59:18;98975.00;;;15.92;61.71
73016;BME280;61893;50.074;14.440;2023-05-19T17:01:50;98979.25;;;15.78;61.75
73016;BME280;61893;50.074;14.440;2023-05-19T17:04:15;98979.75;;;15.82;62.09
73016;BME280;61893;50.074;14.440;2023-05-19T17:06:53;98980.56;;;15.82;62.44
73016;BME280;61893;50.074;14.440;2023-05-19T17:09:21;98983.47;;;15.64;62.89
73016;BME280;61893;50.074;14.440;2023-05-19T17:11:58;98973.06;;;15.77;62.48
73016;BME280;61893;50.074;14.440;2023-05-19T17:14:23;98972.72;;;15.81;62.65
73016;BME280;61893;50.074;14.440;2023-05-19T17:16:50;98970.91;;;15.73;62.87
73016;BME280;61893;50.074;14.440;2023-05-19T17:19:16;98980.97;;;15.63;63.00
73016;BME280;61893;50.074;14.440;2023-05-19T17:21:43;98985.03;;;15.50;63.42
73016;BME280;61893;50.074;14.440;2023-05-19T17:24:11;98982.00;;;15.53;63.70
73016;BME280;61893;50.074;14.440;2023-05-19T17:26:50;98979.84;;;15.57;63.60
73016;BME280;61893;50.074;14.440;2023-05-19T17:29:19;98983.66;;;15.63;63.32
73016;BME280;61893;50.074;14.440;2023-05-19T17:32:02;98983.34;;;15.58;63.35
73016;BME280;61893;50.074;14.440;2023-05-19T17:34:51;98991.09;;;15.44;63.77
73016;BME280;61893;50.074;14.440;2023-05-19T17:37:17;98986.91;;;15.33;64.05
73016;BME280;61893;50.074;14.440;2023-05-19T17:40:08;98995.28;;;15.39;64.07
73016;BME280;61893;50.074;14.440;2023-05-19T17:42:37;98991.13;;;15.28;64.31
73016;BME280;61893;50.074;14.440;2023-05-19T17:45:03;98994.69;;;15.20;64.97
73016;BME280;61893;50.074;14.440;2023-05-19T17:47:32;98984.94;;;15.19;64.83
73016;BME280;61893;50.074;14.440;2023-05-19T17:49:58;98989.13;;;15.30;64.57
73016;BME280;61893;50.074;14.440;2023-05-19T17:52:43;98978.59;;;15.12;65.30
73016;BME280;61893;50.074;14.440;2023-05-19T17:55:15;98983.47;;;15.08;65.47
73016;BME280;61893;50.074;14.440;2023-05-19T17:58:08;98980.63;;;15.10;65.72
73016;BME280;61893;50.074;14.440;2023-05-19T18:00:42;98981.63;;;15.17;65.50
73016;BME280;61893;50.074;14.440;2023-05-19T18:03:08;98979.78;;;15.09;65.55
73016;BME280;61893;50.074;14.440;2023-05-19T18:05:34;98980.94;;;15.15;65.77
73016;BME280;61893;50.074;14.440;2023-05-19T18:08:01;98990.00;;;15.06;65.85
73016;BME280;61893;50.074;14.440;2023-05-19T18:11:07;98977.59;;;15.05;65.84
73016;BME280;61893;50.074;14.440;2023-05-19T18:13:32;98973.09;;;15.05;66.09
73016;BME280;61893;50.074;14.440;2023-05-19T18:15:59;98979.47;;;14.96;66.53
73016;BME280;61893;50.074;14.440;2023-05-19T18:18:25;98977.78;;;15.03;65.73
73016;BME280;61893;50.074;14.440;2023-05-19T18:20:50;98977.81;;;14.87;66.37
73016;BME280;61893;50.074;14.440;2023-05-19T18:23:20;98981.16;;;14.89;65.81
73016;BME280;61893;50.074;14.440;2023-05-19T18:25:49;98987.00;;;14.84;66.36
73016;BME280;61893;50.074;14.440;2023-05-19T18:28:17;98981.34;;;14.71;66.72
73016;BME280;61893;50.074;14.440;2023-05-19T18:30:59;98988.22;;;14.74;66.27
73016;BME280;61893;50.074;14.440;2023-05-19T18:33:25;98980.66;;;14.61;66.89
73016;BME280;61893;50.074;14.440;2023-05-19T18:35:51;98992.53;;;14.67;66.55
73016;BME280;61893;50.074;14.440;2023-05-19T18:38:37;98989.38;;;14.63;66.55
73016;BME280;61893;50.074;14.440;2023-05-19T18:41:06;98997.41;;;14.55;66.75
73016;BME280;61893;50.074;14.440;2023-05-19T18:43:32;99007.44;;;14.53;66.69
73016;BME280;61893;50.074;14.440;2023-05-19T18:45:58;99009.06;;;14.46;66.95
73016;BME280;61893;50.074;14.440;2023-05-19T18:48:24;99010.88;;;14.29;67.37
73016;BME280;61893;50.074;14.440;2023-05-19T18:50:51;99005.38;;;14.38;67.42
73016;BME280;61893;50.074;14.440;2023-05-19T18:53:35;98997.66;;;14.27;67.71
73016;BME280;61893;50.074;14.440;2023-05-19T18:56:02;99008.66;;;14.16;68.42
73016;BME280;61893;50.074;14.440;2023-05-19T18:58:30;98998.81;;;14.25;68.42
73016;BME280;61893;50.074;14.440;2023-05-19T19:01:02;99004.84;;;14.18;68.55
73016;BME280;61893;50.074;14.440;2023-05-19T19:03:28;99011.38;;;14.24;68.35
73016;BME280;61893;50.074;14.440;2023-05-19T19:05:57;99008.00;;;14.06;68.98
73016;BME280;61893;50.074;14.440;2023-05-19T19:08:24;99016.00;;;13.97;69.47
73016;BME280;61893;50.074;14.440;2023-05-19T19:10:50;99014.63;;;13.93;69.75
73016;BME280;61893;50.074;14.440;2023-05-19T19:13:30;99016.00;;;13.97;69.61
73016;BME280;61893;50.074;14.440;2023-05-19T19:15:59;99020.84;;;13.94;69.43
73016;BME280;61893;50.074;14.440;2023-05-19T19:18:25;99010.94;;;13.86;69.98
73016;BME280;61893;50.074;14.440;2023-05-19T19:20:51;99015.22;;;13.79;70.33
73016;BME280;61893;50.074;14.440;2023-05-19T19:23:17;99017.91;;;13.79;70.47
73016;BME280;61893;50.074;14.440;2023-05-19T19:25:45;99027.94;;;13.77;70.76
73016;BME280;61893;50.074;14.440;2023-05-19T19:28:11;99017.28;;;13.85;70.54
73016;BME280;61893;50.074;14.440;2023-05-19T19:30:37;99031.59;;;13.68;71.04
73016;BME280;61893;50.074;14.440;2023-05-19T19:33:03;99026.09;;;13.78;70.82
73016;BME280;61893;50.074;14.440;2023-05-19T19:35:29;99024.13;;;13.80;70.80
73016;BME280;61893;50.074;14.440;2023-05-19T19:38:01;99028.28;;;13.74;71.01
73016;BME280;61893;50.074;14.440;2023-05-19T19:40:29;99035.19;;;13.59;71.81
73016;BME280;61893;50.074;14.440;2023-05-19T19:42:56;99029.34;;;13.55;72.03
73016;BME280;61893;50.074;14.440;2023-05-19T19:45:22;99033.44;;;13.41;72.34
73016;BME280;61893;50.074;14.440;2023-05-19T19:47:48;99042.94;;;13.36;72.75
73016;BME280;61893;50.074;14.440;2023-05-19T19:50:14;99035.09;;;13.34;72.87
73016;BME280;61893;50.074;14.440;2023-05-19T19:52:40;99034.94;;;13.18;73.40
73016;BME280;61893;50.074;14.440;2023-05-19T19:55:06;99044.63;;;13.19;73.50
73016;BME280;61893;50.074;14.440;2023-05-19T19:57:31;99043.72;;;13.10;73.92
73016;BME280;61893;50.074;14.440;2023-05-19T19:59:59;99044.53;;;13.02;74.45
73016;BME280;61893;50.074;14.440;2023-05-19T20:02:35;99048.72;;;13.05;74.50
73016;BME280;61893;50.074;14.440;2023-05-19T20:05:05;99039.31;;;13.01;74.64
73016;BME280;61893;50.074;14.440;2023-05-19T20:07:31;99036.25;;;13.14;74.26
73016;BME280;61893;50.074;14.440;2023-05-19T20:09:57;99043.13;;;12.98;74.68
73016;BME280;61893;50.074;14.440;2023-05-19T20:12:24;99039.44;;;12.91;75.10
73016;BME280;61893;50.074;14.440;2023-05-19T20:14:53;99033.00;;;12.84;75.29
73016;BME280;61893;50.074;14.440;2023-05-19T20:17:19;99028.59;;;12.75;75.76
73016;BME280;61893;50.074;14.440;2023-05-19T20:19:45;99035.56;;;12.68;76.09
73016;BME280;61893;50.074;14.440;2023-05-19T20:22:11;99037.16;;;12.60;76.63
73016;BME280;61893;50.074;14.440;2023-05-19T20:24:37;99036.63;;;12.57;76.88
73016;BME280;61893;50.074;14.440;2023-05-19T20:27:02;99039.13;;;12.40;77.70
73016;BME280;61893;50.074;14.440;2023-05-19T20:29:28;99030.91;;;12.34;78.30
73016;BME280;61893;50.074;14.440;2023-05-19T20:31:54;99031.94;;;12.23;78.65
73016;BME280;61893;50.074;14.440;2023-05-19T20:34:20;99035.44;;;12.24;78.50
73016;BME280;61893;50.074;14.440;2023-05-19T20:36:46;99039.31;;;12.11;78.91
73016;BME280;61893;50.074;14.440;2023-05-19T20:39:12;99039.22;;;12.03;79.36
73016;BME280;61893;50.074;14.440;2023-05-19T20:41:37;99042.91;;;12.02;79.72
73016;BME280;61893;50.074;14.440;2023-05-19T20:44:04;99047.28;;;11.84;80.64
73016;BME280;61893;50.074;14.440;2023-05-19T20:46:30;99054.91;;;11.88;80.70
73016;BME280;61893;50.074;14.440;2023-05-19T20:48:56;99047.13;;;11.95;80.39
73016;BME280;61893;50.074;14.440;2023-05-19T20:51:22;99054.44;;;11.93;80.18
73016;BME280;61893;50.074;14.440;2023-05-19T20:53:50;99048.03;;;11.86;80.59
73016;BME280;61893;50.074;14.440;2023-05-19T20:56:16;99043.97;;;11.72;81.17
73016;BME280;61893;50.074;14.440;2023-05-19T20:58:41;99049.47;;;11.70;81.64
73016;BME280;61893;50.074;14.440;2023-05-19T21:01:07;99048.88;;;11.77;81.41
73016;BME280;61893;50.074;14.440;2023-05-19T21:03:33;99040.81;;;11.59;82.35
73016;BME280;61893;50.074;14.440;2023-05-19T21:05:59;99043.47;;;11.59;82.13
73016;BME280;61893;50.074;14.440;2023-05-19T21:08:25;99039.13;;;11.58;82.39
73016;BME280;61893;50.074;14.440;2023-05-19T21:10:51;99041.69;;;11.49;83.07
73016;BME280;61893;50.074;14.440;2023-05-19T21:13:17;99036.06;;;11.53;82.85
73016;BME280;61893;50.074;14.440;2023-05-19T21:15:42;99035.94;;;11.54;82.69
73016;BME280;61893;50.074;14.440;2023-05-19T21:18:10;99041.28;;;11.44;83.22
73016;BME280;61893;50.074;14.440;2023-05-19T21:20:36;99041.31;;;11.35;83.84
73016;BME280;61893;50.074;14.440;2023-05-19T21:23:03;99030.69;;;11.25;84.28
73016;BME280;61893;50.074;14.440;2023-05-19T21:25:29;99020.63;;;11.19;83.99
73016;BME280;61893;50.074;14.440;2023-05-19T21:27:56;99025.97;;;11.19;84.08
73016;BME280;61893;50.074;14.440;2023-05-19T21:30:23;99025.25;;;11.17;84.22
73016;BME280;61893;50.074;14.440;2023-05-19T21:32:49;99031.44;;;11.08;84.62
73016;BME280;61893;50.074;14.440;2023-05-19T21:35:15;99039.56;;;11.06;84.88
73016;BME280;61893;50.074;14.440;2023-05-19T21:37:41;99049.94;;;11.09;84.60
73016;BME280;61893;50.074;14.440;2023-05-19T21:40:07;99056.53;;;11.05;84.95
73016;BME280;61893;50.074;14.440;2023-05-19T21:42:35;99059.03;;;11.07;84.62
73016;BME280;61893;50.074;14.440;2023-05-19T21:45:01;99061.03;;;10.95;85.08
73016;BME280;61893;50.074;14.440;2023-05-19T21:47:27;99059.63;;;10.91;85.77
73016;BME280;61893;50.074;14.440;2023-05-19T21:49:52;99067.91;;;10.88;85.68
73016;BME280;61893;50.074;14.440;2023-05-19T21:52:18;99070.41;;;10.89;85.62
73016;BME280;61893;50.074;14.440;2023-05-19T21:54:44;99068.19;;;10.85;85.58
73016;BME280;61893;50.074;14.440;2023-05-19T21:57:11;99077.97;;;10.84;85.99
73016;BME280;61893;50.074;14.440;2023-05-19T21:59:37;99074.91;;;10.89;86.30
73016;BME280;61893;50.074;14.440;2023-05-19T22:02:03;99072.25;;;10.79;86.58
73016;BME280;61893;50.074;14.440;2023-05-19T22:04:29;99077.88;;;10.76;86.59
73016;BME280;61893;50.074;14.440;2023-05-19T22:06:59;99075.03;;;10.58;87.71
73016;BME280;61893;50.074;14.440;2023-05-19T22:09:25;99068.31;;;10.64;87.25
73016;BME280;61893;50.074;14.440;2023-05-19T22:11:51;99073.75;;;10.52;87.81
73016;BME280;61893;50.074;14.440;2023-05-19T22:14:17;99070.53;;;10.58;87.67
73016;BME280;61893;50.074;14.440;2023-05-19T22:16:43;99071.97;;;10.63;87.35
73016;BME280;61893;50.074;14.440;2023-05-19T22:19:09;99061.16;;;10.54;88.02
73016;BME280;61893;50.074;14.440;2023-05-19T22:21:36;99069.31;;;10.63;87.98
73016;BME280;61893;50.074;14.440;2023-05-19T22:24:01;99067.47;;;10.53;88.15
73016;BME280;61893;50.074;14.440;2023-05-19T22:26:27;99065.22;;;10.58;88.24
73016;BME280;61893;50.074;14.440;2023-05-19T22:28:54;99063.28;;;10.51;88.56
73016;BME280;61893;50.074;14.440;2023-05-19T22:31:20;99069.72;;;10.48;88.45
73016;BME280;61893;50.074;14.440;2023-05-19T22:33:46;99067.88;;;10.49;88.67
73016;BME280;61893;50.074;14.440;2023-05-19T22:36:11;99052.88;;;10.28;89.66
73016;BME280;61893;50.074;14.440;2023-05-19T22:38:37;99052.50;;;10.43;89.35
73016;BME280;61893;50.074;14.440;2023-05-19T22:41:04;99049.69;;;10.34;89.58
73016;BME280;61893;50.074;14.440;2023-05-19T22:43:29;99056.38;;;10.38;89.45
73016;BME280;61893;50.074;14.440;2023-05-19T22:45:55;99045.50;;;10.42;89.53
73016;BME280;61893;50.074;14.440;2023-05-19T22:48:21;99033.72;;;10.34;90.03
73016;BME280;61893;50.074;14.440;2023-05-19T22:50:47;99026.41;;;10.27;90.15
73016;BME280;61893;50.074;14.440;2023-05-19T22:53:13;99035.09;;;10.29;90.48
73016;BME280;61893;50.074;14.440;2023-05-19T22:55:39;99029.78;;;10.29;90.18
73016;BME280;61893;50.074;14.440;2023-05-19T22:58:05;99034.41;;;10.27;90.26
73016;BME280;61893;50.074;14.440;2023-05-19T23:00:31;99032.59;;;10.37;89.82
73016;BME280;61893;50.074;14.440;2023-05-19T23:02:57;99038.75;;;10.37;89.82
73016;BME280;61893;50.074;14.440;2023-05-19T23:05:23;99043.25;;;10.27;90.17
73016;BME280;61893;50.074;14.440;2023-05-19T23:07:49;99033.09;;;10.11;91.08
73016;BME280;61893;50.074;14.440;2023-05-19T23:10:15;99029.75;;;10.19;91.43
73016;BME280;61893;50.074;14.440;2023-05-19T23:12:41;99031.81;;;10.06;91.55
73016;BME280;61893;50.074;14.440;2023-05-19T23:15:07;99033.09;;;10.21;91.05
73016;BME280;61893;50.074;14.440;2023-05-19T23:17:34;99021.63;;;10.11;91.42
73016;BME280;61893;50.074;14.440;2023-05-19T23:20:00;99020.63;;;10.12;91.73
73016;BME280;61893;50.074;14.440;2023-05-19T23:22:26;99014.75;;;10.18;91.41
73016;BME280;61893;50.074;14.440;2023-05-19T23:24:52;99024.72;;;10.16;91.19
73016;BME280;61893;50.074;14.440;2023-05-19T23:27:18;99023.16;;;10.13;91.51
73016;BME280;61893;50.074;14.440;2023-05-19T23:29:49;99021.47;;;10.03;92.25
73016;BME280;61893;50.074;14.440;2023-05-19T23:32:15;99016.25;;;9.91;92.62
73016;BME280;61893;50.074;14.440;2023-05-19T23:34:41;99016.41;;;10.00;92.49
73016;BME280;61893;50.074;14.440;2023-05-19T23:37:06;99013.50;;;10.03;92.64
73016;BME280;61893;50.074;14.440;2023-05-19T23:39:32;99013.47;;;9.93;92.72
73016;BME280;61893;50.074;14.440;2023-05-19T23:41:58;99017.25;;;9.90;92.83
73016;BME280;61893;50.074;14.440;2023-05-19T23:44:24;99014.16;;;9.95;92.81
73016;BME280;61893;50.074;14.440;2023-05-19T23:46:51;99027.84;;;9.81;93.81
73016;BME280;61893;50.074;14.440;2023-05-19T23:49:17;99024.94;;;9.93;93.02
73016;BME280;61893;50.074;14.440;2023-05-19T23:51:43;99021.44;;;9.93;92.60